createdAt,value
2019-05-12T00:04:04.857Z,51.2
2019-05-12T00:09:01.346Z,52.8
2019-05-12T00:13:58.557Z,52.7
2019-05-12T00:18:54.203Z,53.2
2019-05-12T00:23:50.702Z,53.2
2019-05-12T00:28:48.171Z,54
2019-05-12T00:33:43.530Z,54.5
2019-05-12T00:38:39.835Z,54.5
2019-05-12T00:43:38.108Z,53.8
2019-05-12T00:48:32.556Z,54.9
2019-05-12T00:53:39.550Z,55
2019-05-12T00:58:27.726Z,55.3
2019-05-12T01:03:22.381Z,55.4
2019-05-12T01:08:19.004Z,55.3
2019-05-12T01:13:15.592Z,55.6
2019-05-12T01:18:12.833Z,55.9
2019-05-12T01:23:09.563Z,55.7
2019-05-12T01:28:08.073Z,56.1
2019-05-12T01:33:02.597Z,56.2
2019-05-12T01:38:01.415Z,56.3
2019-05-12T01:42:55.049Z,56
2019-05-12T01:47:51.464Z,57
2019-05-12T01:52:48.145Z,56.8
2019-05-12T01:57:44.725Z,57
2019-05-12T02:02:41.305Z,57.4
2019-05-12T02:07:38.367Z,57
2019-05-12T02:12:33.930Z,57.4
2019-05-12T02:17:30.418Z,57.2
2019-05-12T02:22:27.856Z,57.4
2019-05-12T02:27:23.790Z,57.3
2019-05-12T02:32:20.353Z,57.6
2019-05-12T02:37:16.951Z,58.3
2019-05-12T02:42:15.536Z,57.6
2019-05-12T02:47:10.130Z,57.9
2019-05-12T02:52:06.461Z,57.9
2019-05-12T02:57:04.229Z,57.9
2019-05-12T03:01:59.586Z,57.4
2019-05-12T03:06:56.178Z,57.1
2019-05-12T03:11:55.545Z,57
2019-05-12T03:16:53.971Z,57.2
2019-05-12T03:21:48.293Z,57.6
2019-05-12T03:26:45.195Z,57.7
2019-05-12T03:31:41.673Z,58.1
2019-05-12T03:36:41.549Z,58.2
2019-05-12T03:41:35.291Z,58
2019-05-12T03:46:34.894Z,58.3
2019-05-12T03:51:28.448Z,58.2
2019-05-12T03:56:26.049Z,58.1
2019-05-12T04:01:24.480Z,57.8
2019-05-12T04:06:18.536Z,57.6
2019-05-12T04:11:15.199Z,57.9
2019-05-12T04:16:11.813Z,58.1
2019-05-12T04:21:07.967Z,58.1
2019-05-12T04:26:10.737Z,57.7
2019-05-12T04:31:01.448Z,57.2
2019-05-12T04:35:58.442Z,57.4
2019-05-12T04:40:55.232Z,57.5
2019-05-12T04:45:51.028Z,57.5
2019-05-12T04:50:47.546Z,57.1
2019-05-12T04:55:44.640Z,57.5
2019-05-12T05:00:41.032Z,57.7
2019-05-12T05:05:37.688Z,57.8
2019-05-12T05:10:34.531Z,58
2019-05-12T05:15:30.428Z,58.3
2019-05-12T05:20:27.076Z,57.8
2019-05-12T05:25:23.706Z,57.7
2019-05-12T05:30:20.100Z,57.8
2019-05-12T05:35:16.758Z,57.6
2019-05-12T05:40:14.200Z,57.3
2019-05-12T05:45:15.254Z,56.9
2019-05-12T05:50:06.598Z,57.7
2019-05-12T05:55:05.613Z,57.4
2019-05-12T05:59:59.419Z,57.1
2019-05-12T06:04:56.379Z,56.6
2019-05-12T06:09:53.635Z,56.6
2019-05-12T06:14:55.080Z,56.8
2019-05-12T06:19:46.474Z,56.2
2019-05-12T06:24:44.199Z,56
2019-05-12T06:29:41.018Z,55.8
2019-05-12T06:34:37.578Z,55.9
2019-05-12T06:39:34.489Z,55.4
2019-05-12T06:44:33.278Z,55.4
2019-05-12T06:49:27.309Z,54.8
2019-05-12T06:54:21.184Z,54.6
2019-05-12T06:59:18.621Z,54.2
2019-05-12T07:04:15.220Z,54.5
2019-05-12T07:09:16.113Z,54.1
2019-05-12T07:14:18.677Z,53.6
2019-05-12T07:19:15.885Z,53.7
2019-05-12T07:24:06.486Z,52.9
2019-05-12T07:29:00.592Z,52.8
2019-05-12T07:33:57.265Z,53
2019-05-12T07:38:55.727Z,53.5
2019-05-12T07:43:56.609Z,53.4
2019-05-12T07:48:50.674Z,53.9
2019-05-12T07:53:46.679Z,53.4
2019-05-12T07:58:46.233Z,53
2019-05-12T08:03:38.574Z,52
2019-05-12T08:08:35.495Z,52
2019-05-12T08:13:37.425Z,51.8
2019-05-12T08:18:30.397Z,51.7
2019-05-12T08:23:25.774Z,51.7
2019-05-12T08:28:25.552Z,51.9
2019-05-12T08:33:19.306Z,50.9
2019-05-12T08:38:16.110Z,49.8
2019-05-12T08:43:14.836Z,49
2019-05-12T08:48:15.418Z,48.7
2019-05-12T08:53:20.210Z,49.1
2019-05-12T08:58:29.320Z,48.4
2019-05-12T09:03:20.268Z,46.8
2019-05-12T09:08:16.063Z,47.1
2019-05-12T09:13:17.923Z,47
2019-05-12T09:18:25.254Z,46.4
2019-05-12T09:23:25.675Z,46.6
2019-05-12T09:28:28.172Z,46.4
2019-05-12T09:33:27.410Z,46.2
2019-05-12T09:43:17.693Z,46.1
2019-05-12T09:48:14.557Z,44.8
2019-05-12T09:53:14.138Z,43.7
2019-05-12T09:58:13.079Z,44
2019-05-12T10:03:08.317Z,44.3
2019-05-12T10:08:04.239Z,43.1
2019-05-12T10:12:58.203Z,43.7
2019-05-12T10:17:55.012Z,43.3
2019-05-12T10:22:54.125Z,43.4
2019-05-12T10:27:48.931Z,42.6
2019-05-12T10:32:45.586Z,42.4
2019-05-12T10:37:43.370Z,41.9
2019-05-12T10:42:39.708Z,40.1
2019-05-12T10:47:36.193Z,40.3
2019-05-12T10:52:34.907Z,39.6
2019-05-12T10:57:28.343Z,39.3
2019-05-12T11:02:30.341Z,39.4
2019-05-12T11:07:27.934Z,39.9
2019-05-12T11:12:24.999Z,40.2
2019-05-12T11:17:17.357Z,39.7
2019-05-12T11:22:14.376Z,39.5
2019-05-12T11:27:13.399Z,40.6
2019-05-12T11:32:08.827Z,39
2019-05-12T11:37:06.250Z,39.4
2019-05-12T11:42:04.178Z,38.8
2019-05-12T11:47:00.292Z,39.2
2019-05-12T11:52:00.943Z,38.6
2019-05-12T11:56:54.354Z,38.5
2019-05-12T12:01:53.882Z,38.5
2019-05-12T12:06:47.425Z,38
2019-05-12T12:11:44.495Z,38
2019-05-12T12:16:41.790Z,38.3
2019-05-12T12:21:40.268Z,36.2
2019-05-12T12:26:37.058Z,34.7
2019-05-12T12:31:35.406Z,35.3
2019-05-12T12:36:27.794Z,35.5
2019-05-12T12:41:24.669Z,35.4
2019-05-12T12:46:21.717Z,34.8
2019-05-12T12:51:18.420Z,35.4
2019-05-12T12:56:23.906Z,35.6
2019-05-12T13:01:13.932Z,37
2019-05-12T13:06:08.326Z,37.4
2019-05-12T13:11:05.194Z,36.3
2019-05-12T13:16:04.041Z,36
2019-05-12T13:20:58.519Z,36
2019-05-12T13:25:55.260Z,36.6
2019-05-12T13:30:54.713Z,36.3
2019-05-12T13:35:50.087Z,36.8
2019-05-12T13:40:45.436Z,37.8
2019-05-12T13:45:43.932Z,38.3
2019-05-12T13:50:39.237Z,38.6
2019-05-12T13:55:39.220Z,38.7
2019-05-12T14:00:33.565Z,37.9
2019-05-12T14:05:29.160Z,38.4
2019-05-12T14:10:26.369Z,39.1
2019-05-12T14:15:24.818Z,39.4
2019-05-12T14:20:20.201Z,39.2
2019-05-12T14:25:20.865Z,38.9
2019-05-12T14:30:14.327Z,38.5
2019-05-12T14:35:09.962Z,37.9
2019-05-12T14:40:06.613Z,37.5
2019-05-12T14:45:04.661Z,38.1
2019-05-12T14:49:59.706Z,38.6
2019-05-12T14:54:56.509Z,39.2
2019-05-12T14:59:53.146Z,39.6
2019-05-12T15:04:49.902Z,40.9
2019-05-12T15:09:46.437Z,41.6
2019-05-12T15:14:43.790Z,41.6
2019-05-12T15:19:39.907Z,41.1
2019-05-12T15:24:36.933Z,41.6
2019-05-12T15:29:33.853Z,41.9
2019-05-12T15:34:30.224Z,41.5
2019-05-12T15:39:27.382Z,41
2019-05-12T15:44:31.297Z,41.3
2019-05-12T15:49:20.720Z,42
2019-05-12T15:54:17.451Z,42.3
2019-05-12T15:59:17.346Z,42.3
2019-05-12T16:04:11.891Z,42.3
2019-05-12T16:09:08.222Z,42.6
2019-05-12T16:14:04.849Z,42.6
2019-05-12T16:19:04.325Z,42.7
2019-05-12T16:24:02.879Z,43
2019-05-12T16:29:02.311Z,43.4
2019-05-12T16:34:00.497Z,43.8
2019-05-12T16:38:50.067Z,44.3
2019-05-12T16:43:45.784Z,45
2019-05-12T16:48:47.800Z,45.5
2019-05-12T16:53:39.064Z,45.7
2019-05-12T16:58:35.947Z,46.1
2019-05-12T17:03:34.132Z,46.4
2019-05-12T17:08:29.994Z,46.9
2019-05-12T17:13:26.666Z,47.1
2019-05-12T17:18:24.630Z,47.2
2019-05-12T17:23:20.306Z,47.1
2019-05-12T17:28:17.199Z,47.3
2019-05-12T17:33:22.181Z,47.2
2019-05-12T17:38:19.654Z,48.3
2019-05-12T17:43:11.738Z,48.9
2019-05-12T17:48:15.458Z,49.3
2019-05-12T17:53:10.570Z,49.9
2019-05-12T17:58:06.983Z,49.6
2019-05-12T18:03:15.427Z,49.5
2019-05-12T18:08:00.933Z,49.5
2019-05-12T18:12:56.990Z,49.9
2019-05-12T18:17:53.667Z,50
2019-05-12T18:22:50.239Z,49.6
2019-05-12T18:27:50.463Z,49.3
2019-05-12T18:32:43.311Z,49.4
2019-05-12T18:37:40.087Z,49
2019-05-12T18:42:36.868Z,48.8
2019-05-12T18:47:36.279Z,49
2019-05-12T18:52:36.363Z,49.2
2019-05-12T18:57:27.362Z,48.9
2019-05-12T19:02:28.265Z,48.8
2019-05-12T19:07:20.967Z,48.7
2019-05-12T19:12:21.079Z,49
2019-05-12T19:17:14.754Z,49.2
2019-05-12T19:22:13.911Z,49
2019-05-12T19:27:10.205Z,49.4
2019-05-12T19:32:04.693Z,49.4
2019-05-12T19:37:03.242Z,49.5
2019-05-12T19:41:58.035Z,50.2
2019-05-12T19:46:54.900Z,50.7
2019-05-12T19:51:51.531Z,51
2019-05-12T19:56:48.333Z,50.3
2019-05-12T20:01:45.379Z,50.5
2019-05-12T20:06:43.937Z,50.7
2019-05-12T20:11:38.808Z,51
2019-05-12T20:16:35.638Z,51
2019-05-12T20:21:33.965Z,51.1
2019-05-12T20:26:32.978Z,50.8
2019-05-12T20:31:27.170Z,51.2
2019-05-12T20:36:25.878Z,51.2
2019-05-12T20:41:23.735Z,51.7
2019-05-12T20:46:21.616Z,51.9
2019-05-12T20:51:15.141Z,51.4
2019-05-12T20:56:12.021Z,51.6
2019-05-12T21:01:06.826Z,51.3
2019-05-12T21:06:04.328Z,51.5
2019-05-12T21:11:00.412Z,51.5
2019-05-12T21:15:57.198Z,51.7
2019-05-12T21:20:54.729Z,51.6
2019-05-12T21:25:55.840Z,51.2
2019-05-12T21:30:49.597Z,51.3
2019-05-12T21:35:46.011Z,52.3
2019-05-12T21:40:40.772Z,52.3
2019-05-12T21:45:37.462Z,52.3
2019-05-12T21:50:38.006Z,51.8
2019-05-12T21:55:31.005Z,51.2
2019-05-12T22:00:27.615Z,50.9
2019-05-12T22:05:46.896Z,51.3
2019-05-12T22:10:26.559Z,51.8
2019-05-12T22:15:21.022Z,52.3
2019-05-12T22:20:19.779Z,51.7
2019-05-12T22:25:15.625Z,51.5
2019-05-12T22:30:08.360Z,51.4
2019-05-12T22:35:05.096Z,51.6
2019-05-12T22:40:06.017Z,51.2
2019-05-12T22:45:01.337Z,51.5
2019-05-12T22:49:57.070Z,51.4
2019-05-12T22:54:53.712Z,51.7
2019-05-12T22:59:49.441Z,51.9
2019-05-12T23:04:46.081Z,52.5
2019-05-12T23:09:43.529Z,52.5
2019-05-12T23:14:39.538Z,52.4
2019-05-12T23:19:36.202Z,52.5
2019-05-12T23:24:36.811Z,52.3
2019-05-12T23:29:31.074Z,52.5
2019-05-12T23:34:26.949Z,53
2019-05-12T23:39:23.907Z,53.3
2019-05-12T23:44:20.499Z,53.4
2019-05-12T23:49:17.599Z,54
2019-05-12T23:54:14.534Z,54.9
2019-05-12T23:59:10.817Z,54.7
